UMMS Airport Information

Runway Information
Runway 13 Length 11946 ft width 197 ft
Elevation 640 ft Threshold 0 ft Heading 139
Runway 31 Length 11946 ft Width 197 ft
Elevation 670 ft Threshold 0 ft Heading 319
Airport Frequencies
Type APP Name MINSK APP Frequency 125.9 MHZ
Type ATIS Name ATIS Frequency 128.85 MHZ
Type GND Name GND Frequency 121.7 MHZ
Type PMSV Name MINSK VOLM Frequency 126.675 MHZ
Type RDR Name MINSK RADA Frequency 125.25 MHZ
Type TWR Name TWR Frequency 118.3 MHZ
Airport Navaids
Type NDB Name Minsk-2 Frequency 635 KHZ
Type VOR-DME Name Minsk-2 Frequency 113600 KHZ
Type NDB Name Minsk-2 Frequency 635 KHZ
Airport Weather Information & NOTAM
ADDS - METARS form results

(1316 UTC 24 January 2019)
Data provider http://aviationweather.gov/metar/data/
 
METAR text: UMMS 241300Z 35002MPS CAVOK M08/M11 Q1017 R31/810342 NOSIG
Conditions at: UMMS (MINSK , BY) observed 1300 UTC 24 January 2019
Temperature: -8.0°C (18°F)
Dewpoint: -11.0°C (12°F) [RH = 79%]
Pressure (altimeter): 30.03 inches Hg (1017.0 mb)
Winds: from the N (350 degrees) at 5 MPH (4 knots; 2.1 m/s)
Visibility: 6 or more miles (10+ km)
Ceiling: ceiling and visibility are OK
Clouds: unknown
Weather: no significant weather observed at this time

METAR text: UMMS 241230Z 35002MPS CAVOK M08/M11 Q1017 R31/810342 NOSIG
Conditions at: UMMS (MINSK , BY) observed 1230 UTC 24 January 2019
Temperature: -8.0°C (18°F)
Dewpoint: -11.0°C (12°F) [RH = 79%]
Pressure (altimeter): 30.03 inches Hg (1017.0 mb)
Winds: from the N (350 degrees) at 5 MPH (4 knots; 2.1 m/s)
Visibility: 6 or more miles (10+ km)
Ceiling: ceiling and visibility are OK
Clouds: unknown
Weather: no significant weather observed at this time

Forecast for: UMMS (MINSK , BY)
Text: TAF UMMS 241112Z 2412/2512 04005MPS 9999 SCT012
Forecast period: 1200 UTC 24 January 2019 to 0800 UTC 25 January 2019
Forecast type: FROM: standard forecast or significant change
Winds: from the NE (40 degrees) at 12 MPH (10 knots; 5.1 m/s)
Visibility: 6 or more miles 10+ km)
Ceiling: at least 12,000 feet AGL
Clouds: scattered clouds at 1200 feet AGL
Weather: no significant weather forecast for this period
Text: TEMPO 2415/2508 0500 FZFG VV002
Forecast period: 1500 UTC 24 January 2019 to 0800 UTC 25 January 2019
Forecast type: TEMPORARY: The following changes expected for less than half the time period
Visibility: 0.31 miles (0.50 km)
Ceiling: indefinite ceiling with vertical visibility of 200 feet AGL
Clouds: obscured sky
Weather: FZFG  (freezing fog)
Text: BECMG 2508/2509 09006MPS
Forecast period: 0800 to 1200 UTC 25 January 2019
Forecast type: BECOMING: Conditions expected to become as follows by 0900 UTC 25 January 2019
Winds: from the E (90 degrees) at 14 MPH (12 knots; 6.2 m/s)
Visibility: 6 or more miles 10+ km)
Ceiling: at least 12,000 feet AGL
Clouds: scattered clouds at 1200 feet AGL
Weather: no significant weather forecast for this period